createdAt,value
2023-04-15T00:00:58.612Z,15.10
2023-04-15T00:03:27.060Z,15.10
2023-04-15T00:05:55.762Z,15.10
2023-04-15T00:08:24.597Z,15.10
2023-04-15T00:10:54.859Z,15.10
2023-04-15T00:13:23.104Z,15.10
2023-04-15T00:15:51.453Z,15.10
2023-04-15T00:18:19.759Z,15.00
2023-04-15T00:20:47.990Z,15.00
2023-04-15T00:23:16.242Z,15.10
2023-04-15T00:25:44.694Z,15.00
2023-04-15T00:28:14.353Z,15.00
2023-04-15T00:30:42.755Z,15.00
2023-04-15T00:33:11.176Z,15.00
2023-04-15T00:35:39.466Z,15.00
2023-04-15T00:38:08.467Z,15.00
2023-04-15T00:40:36.839Z,14.90
2023-04-15T00:43:06.059Z,14.90
2023-04-15T00:45:35.724Z,14.90
2023-04-15T00:48:04.551Z,14.90
2023-04-15T00:50:32.977Z,15.00
2023-04-15T00:53:01.260Z,14.90
2023-04-15T00:55:29.550Z,14.90
2023-04-15T00:57:58.558Z,14.90
2023-04-15T01:00:26.950Z,14.90
2023-04-15T01:02:56.941Z,14.90
2023-04-15T01:05:25.807Z,14.90
2023-04-15T01:07:54.147Z,14.90
2023-04-15T01:10:22.580Z,14.90
2023-04-15T01:12:51.465Z,14.80
2023-04-15T01:15:20.556Z,14.80
2023-04-15T01:17:49.585Z,14.80
2023-04-15T01:20:19.618Z,14.80
2023-04-15T01:22:48.135Z,14.80
2023-04-15T01:25:21.802Z,14.90
2023-04-15T01:27:51.752Z,14.80
2023-04-15T01:30:20.424Z,14.90
2023-04-15T01:32:48.978Z,14.90
2023-04-15T01:35:17.669Z,14.90
2023-04-15T01:37:46.852Z,14.90
2023-04-15T01:40:15.611Z,14.90
2023-04-15T01:42:44.144Z,14.90
2023-04-15T01:45:14.736Z,14.90
2023-04-15T01:47:43.828Z,14.80
2023-04-15T01:50:13.233Z,14.90
2023-04-15T01:52:42.055Z,14.80
2023-04-15T01:55:11.271Z,14.80
2023-04-15T01:57:40.062Z,14.80
2023-04-15T02:00:09.743Z,14.80
2023-04-15T02:02:40.312Z,14.80
2023-04-15T02:05:09.930Z,14.80
2023-04-15T02:07:38.600Z,14.80
2023-04-15T02:10:08.041Z,14.80
2023-04-15T02:12:37.015Z,14.80
2023-04-15T02:15:06.083Z,14.80
2023-04-15T02:17:36.582Z,14.80
2023-04-15T02:20:07.429Z,14.80
2023-04-15T02:22:35.957Z,14.70
2023-04-15T02:25:04.597Z,14.80
2023-04-15T02:27:33.058Z,14.70
2023-04-15T02:30:01.931Z,14.70
2023-04-15T02:32:30.532Z,14.70
2023-04-15T02:35:03.537Z,14.70
2023-04-15T02:37:36.631Z,14.70
2023-04-15T02:40:05.593Z,14.70
2023-04-15T02:42:34.078Z,14.70
2023-04-15T02:45:02.707Z,14.70
2023-04-15T02:47:31.433Z,14.70
2023-04-15T02:50:01.064Z,14.70
2023-04-15T02:52:29.560Z,14.70
2023-04-15T02:55:00.851Z,14.60
2023-04-15T02:57:29.779Z,14.70
2023-04-15T02:59:58.039Z,14.70
2023-04-15T03:02:26.652Z,14.60
2023-04-15T03:04:56.478Z,14.70
2023-04-15T03:07:24.748Z,14.60
2023-04-15T03:09:53.078Z,14.60
2023-04-15T03:12:22.773Z,14.60
2023-04-15T03:14:51.006Z,14.60
2023-04-15T03:17:19.421Z,14.60
2023-04-15T03:19:47.763Z,14.60
2023-04-15T03:22:16.048Z,14.60
2023-04-15T03:24:44.347Z,14.50
2023-04-15T03:27:13.328Z,14.50
2023-04-15T03:29:42.977Z,14.50
2023-04-15T03:32:11.435Z,14.50
2023-04-15T03:34:39.651Z,14.50
2023-04-15T03:37:07.942Z,14.50
2023-04-15T03:39:36.303Z,14.50
2023-04-15T03:42:04.705Z,14.50
2023-04-15T03:44:32.945Z,14.50
2023-04-15T03:47:02.718Z,14.50
2023-04-15T03:49:31.297Z,14.40
2023-04-15T03:51:59.786Z,14.40
2023-04-15T03:54:28.009Z,14.40
2023-04-15T03:56:56.956Z,14.40
2023-04-15T03:59:25.482Z,14.40
2023-04-15T04:01:53.852Z,14.40
2023-04-15T04:04:23.766Z,14.40
2023-04-15T04:06:52.058Z,14.40
2023-04-15T04:09:20.273Z,14.40
2023-04-15T04:11:48.619Z,14.40
2023-04-15T04:14:17.003Z,14.40
2023-04-15T04:16:45.403Z,14.30
2023-04-15T04:19:14.832Z,14.30
2023-04-15T04:21:44.493Z,14.30
2023-04-15T04:24:13.012Z,14.30
2023-04-15T04:26:41.397Z,14.30
2023-04-15T04:29:09.672Z,14.30
2023-04-15T04:31:37.908Z,14.30
2023-04-15T04:34:06.254Z,14.30
2023-04-15T04:36:34.467Z,14.30
2023-04-15T04:39:04.374Z,14.30
2023-04-15T04:41:32.627Z,14.20
2023-04-15T04:44:00.928Z,14.30
2023-04-15T04:46:30.538Z,14.30
2023-04-15T04:48:58.829Z,14.30
2023-04-15T04:51:28.134Z,14.20
2023-04-15T04:53:57.165Z,14.20
2023-04-15T04:56:27.135Z,14.20
2023-04-15T04:58:55.690Z,14.20
2023-04-15T05:01:24.055Z,14.20
2023-04-15T05:03:52.403Z,14.20
2023-04-15T05:06:20.747Z,14.20
2023-04-15T05:08:49.134Z,14.20
2023-04-15T05:11:17.419Z,14.20
2023-04-15T05:13:47.040Z,14.20
2023-04-15T05:16:15.446Z,14.20
2023-04-15T05:18:43.898Z,14.20
2023-04-15T05:21:12.565Z,14.20
2023-04-15T05:23:41.403Z,14.20
2023-04-15T05:26:09.702Z,14.20
2023-04-15T05:28:37.972Z,14.20
2023-04-15T05:31:08.752Z,14.20
2023-04-15T05:33:37.781Z,14.20
2023-04-15T05:36:06.496Z,14.20
2023-04-15T05:38:34.784Z,14.20
2023-04-15T05:41:03.109Z,14.20
2023-04-15T05:43:31.717Z,14.20
2023-04-15T05:46:00.181Z,14.20
2023-04-15T05:48:29.874Z,14.20
2023-04-15T05:50:58.290Z,14.20
2023-04-15T05:53:26.791Z,14.20
2023-04-15T05:55:55.031Z,14.10
2023-04-15T05:58:23.258Z,14.10
2023-04-15T06:00:51.615Z,14.10
2023-04-15T06:03:20.104Z,14.20
2023-04-15T06:05:49.941Z,14.10
2023-04-15T06:08:19.044Z,14.20
2023-04-15T06:10:47.356Z,14.20
2023-04-15T06:13:16.982Z,14.20
2023-04-15T06:15:45.253Z,14.20
2023-04-15T06:18:13.596Z,14.20
2023-04-15T06:20:42.009Z,14.20
2023-04-15T06:23:11.714Z,14.30
2023-04-15T06:25:39.963Z,14.20
2023-04-15T06:28:08.613Z,14.30
2023-04-15T06:30:37.189Z,14.20
2023-04-15T06:33:06.385Z,14.20
2023-04-15T06:35:34.784Z,14.30
2023-04-15T06:38:03.094Z,14.20
2023-04-15T06:40:33.880Z,14.20
2023-04-15T06:43:02.149Z,14.20
2023-04-15T06:45:30.516Z,14.20
2023-04-15T06:47:58.923Z,14.30
2023-04-15T06:50:27.317Z,14.30
2023-04-15T06:52:55.984Z,14.30
2023-04-15T06:55:24.529Z,14.30
2023-04-15T06:57:54.149Z,14.30
2023-04-15T07:00:22.527Z,14.30
2023-04-15T07:02:51.441Z,14.30
2023-04-15T07:05:20.208Z,14.40
2023-04-15T07:07:48.567Z,14.40
2023-04-15T07:10:17.192Z,14.40
2023-04-15T07:12:45.919Z,14.40
2023-04-15T07:15:15.716Z,14.50
2023-04-15T07:17:44.451Z,14.50
2023-04-15T07:20:14.177Z,14.50
2023-04-15T07:22:42.424Z,14.50
2023-04-15T07:25:11.246Z,14.50
2023-04-15T07:27:39.623Z,14.60
2023-04-15T07:30:09.262Z,14.50
2023-04-15T07:32:38.896Z,14.60
2023-04-15T07:35:07.913Z,14.60
2023-04-15T07:37:36.350Z,14.60
2023-04-15T07:40:07.549Z,14.60
2023-04-15T07:42:37.128Z,14.60
2023-04-15T07:45:07.098Z,14.70
2023-04-15T07:47:35.353Z,14.70
2023-04-15T07:50:05.458Z,14.70
2023-04-15T07:52:39.166Z,14.80
2023-04-15T07:55:08.631Z,14.70
2023-04-15T07:57:37.130Z,14.80
2023-04-15T08:00:07.809Z,14.80
2023-04-15T08:02:38.180Z,14.70
2023-04-15T08:05:10.799Z,14.80
2023-04-15T08:07:39.738Z,14.70
2023-04-15T08:10:09.411Z,14.80
2023-04-15T08:12:38.057Z,14.80
2023-04-15T08:15:08.241Z,14.80
2023-04-15T08:17:36.686Z,14.80
2023-04-15T08:20:06.489Z,14.80
2023-04-15T08:22:36.531Z,14.90
2023-04-15T08:25:05.436Z,14.80
2023-04-15T08:27:33.769Z,14.90
2023-04-15T08:30:04.695Z,14.90
2023-04-15T08:32:33.557Z,14.90
2023-04-15T08:35:01.954Z,14.80
2023-04-15T08:37:30.164Z,14.90
2023-04-15T08:39:59.794Z,14.90
2023-04-15T08:42:32.949Z,14.90
2023-04-15T08:45:02.765Z,14.90
2023-04-15T08:47:32.931Z,14.90
2023-04-15T08:50:04.625Z,14.90
2023-04-15T08:52:33.388Z,14.90
2023-04-15T08:55:05.360Z,14.90
2023-04-15T08:57:34.970Z,14.90
2023-04-15T09:00:05.952Z,14.90
2023-04-15T09:02:34.797Z,14.90
2023-04-15T09:05:05.160Z,14.90
2023-04-15T09:07:35.891Z,14.90
2023-04-15T09:10:07.481Z,14.80
2023-04-15T09:12:37.182Z,14.80
2023-04-15T09:15:06.528Z,14.80
2023-04-15T09:17:35.751Z,14.80
2023-04-15T09:20:11.456Z,14.90
2023-04-15T09:22:40.865Z,14.80
2023-04-15T09:25:27.765Z,14.80
2023-04-15T09:27:57.677Z,14.90
2023-04-15T09:30:26.158Z,14.90
2023-04-15T09:32:56.654Z,14.90
2023-04-15T09:35:26.466Z,14.90
2023-04-15T09:38:02.979Z,15.00
2023-04-15T09:40:37.280Z,15.00
2023-04-15T09:43:06.370Z,15.10
2023-04-15T09:45:35.828Z,15.00
2023-04-15T09:48:17.675Z,15.10
2023-04-15T09:50:46.230Z,15.10
2023-04-15T09:53:19.186Z,15.10
2023-04-15T09:55:52.108Z,15.10
2023-04-15T09:58:21.518Z,15.10
2023-04-15T10:00:51.142Z,15.10
2023-04-15T10:03:22.567Z,15.10
2023-04-15T10:05:52.435Z,15.20
2023-04-15T10:08:21.963Z,15.20
2023-04-15T10:10:52.777Z,15.20
2023-04-15T10:13:23.733Z,15.30
2023-04-15T10:15:57.253Z,15.30
2023-04-15T10:18:27.624Z,15.30
2023-04-15T10:20:56.545Z,15.30
2023-04-15T10:23:25.961Z,15.40
2023-04-15T10:25:56.442Z,15.40
2023-04-15T10:28:25.011Z,15.40
2023-04-15T10:30:54.661Z,15.40
2023-04-15T10:33:25.064Z,15.40
2023-04-15T10:35:55.660Z,15.40
2023-04-15T10:38:34.369Z,15.40
2023-04-15T10:41:25.995Z,15.50
2023-04-15T10:43:56.005Z,15.50
2023-04-15T10:46:25.926Z,15.50
2023-04-15T10:48:55.202Z,15.60
2023-04-15T10:51:31.716Z,15.50
2023-04-15T10:54:01.089Z,15.60
2023-04-15T10:56:32.041Z,15.60
2023-04-15T10:59:07.538Z,15.60
2023-04-15T11:01:57.720Z,15.70
2023-04-15T11:04:54.729Z,15.70
2023-04-15T11:07:37.047Z,15.80
2023-04-15T11:10:07.745Z,15.80
2023-04-15T11:12:38.807Z,16.00
2023-04-15T11:15:30.819Z,16.10
2023-04-15T11:18:00.564Z,16.40
2023-04-15T11:20:29.033Z,16.70
2023-04-15T11:23:08.247Z,16.90
2023-04-15T11:25:43.805Z,17.30
2023-04-15T11:28:14.936Z,17.50
2023-04-15T11:30:44.851Z,17.70
2023-04-15T11:33:14.134Z,18.00
2023-04-15T11:35:43.366Z,18.20
2023-04-15T11:38:14.365Z,18.40
2023-04-15T11:40:46.146Z,18.70
2023-04-15T11:43:20.315Z,19.10
2023-04-15T11:45:54.295Z,19.30
2023-04-15T11:48:24.750Z,19.60
2023-04-15T11:50:57.564Z,19.80
2023-04-15T11:53:26.557Z,20.10
2023-04-15T11:55:56.011Z,20.40
2023-04-15T11:58:27.998Z,20.60
2023-04-15T12:00:58.876Z,20.80
2023-04-15T12:03:28.935Z,21.10
2023-04-15T12:06:24.765Z,21.30
2023-04-15T12:09:01.675Z,21.70
2023-04-15T12:11:38.009Z,22.00
2023-04-15T12:14:10.730Z,22.20
2023-04-15T12:16:48.734Z,22.40
2023-04-15T12:19:20.749Z,22.70
2023-04-15T12:21:52.824Z,23.00
2023-04-15T12:24:23.825Z,23.20
2023-04-15T12:26:54.090Z,23.50
2023-04-15T12:29:27.877Z,23.80
2023-04-15T12:31:57.929Z,24.00
2023-04-15T12:34:31.411Z,24.20
2023-04-15T12:37:01.514Z,24.40
2023-04-15T12:39:32.112Z,24.60
2023-04-15T12:42:01.766Z,24.90
2023-04-15T12:44:31.676Z,25.10
2023-04-15T12:47:01.938Z,25.50
2023-04-15T12:49:30.851Z,25.60
2023-04-15T12:52:01.316Z,25.90
2023-04-15T12:54:30.027Z,26.10
2023-04-15T12:56:59.703Z,26.40
2023-04-15T12:59:28.257Z,26.50
2023-04-15T13:01:58.531Z,26.50
2023-04-15T13:04:30.872Z,26.50
2023-04-15T13:06:59.877Z,26.40
2023-04-15T13:09:28.331Z,26.20
2023-04-15T13:11:57.678Z,26.10
2023-04-15T13:14:26.185Z,26.10
2023-04-15T13:16:55.085Z,26.20
2023-04-15T13:19:24.749Z,26.40
2023-04-15T13:21:53.463Z,26.70
2023-04-15T13:24:21.758Z,27.00
2023-04-15T13:26:50.485Z,27.20
2023-04-15T13:29:18.889Z,27.40
2023-04-15T13:31:47.266Z,27.50
2023-04-15T13:34:15.744Z,27.60
2023-04-15T13:36:46.927Z,27.60
2023-04-15T13:39:15.647Z,27.80
2023-04-15T13:41:43.944Z,27.60
2023-04-15T13:44:12.424Z,27.40
2023-04-15T13:46:41.963Z,27.50
2023-04-15T13:49:10.273Z,27.50
2023-04-15T13:51:38.676Z,27.60
2023-04-15T13:54:08.458Z,27.40
2023-04-15T13:56:36.729Z,27.20
2023-04-15T13:59:06.694Z,27.10
2023-04-15T14:01:35.959Z,27.10
2023-04-15T14:04:04.792Z,27.10
2023-04-15T14:06:33.527Z,27.10
2023-04-15T14:09:02.040Z,26.90
2023-04-15T14:11:31.899Z,26.80
2023-04-15T14:14:00.198Z,26.70
2023-04-15T14:16:29.000Z,26.60
2023-04-15T14:18:58.685Z,26.30
2023-04-15T14:21:28.131Z,26.10
2023-04-15T14:23:57.464Z,25.80
2023-04-15T14:26:26.606Z,25.60
2023-04-15T14:28:57.169Z,25.50
2023-04-15T14:31:25.549Z,25.30
2023-04-15T14:33:55.604Z,25.20
2023-04-15T14:36:23.936Z,25.00
2023-04-15T14:38:52.559Z,24.80
2023-04-15T14:41:20.863Z,24.70
2023-04-15T14:43:49.407Z,24.50
2023-04-15T14:46:19.122Z,24.40
2023-04-15T14:48:47.607Z,24.30
2023-04-15T14:51:16.470Z,24.10
2023-04-15T14:53:45.017Z,24.00
2023-04-15T14:56:13.419Z,23.80
2023-04-15T14:58:41.860Z,23.70
2023-04-15T15:01:10.576Z,23.60
2023-04-15T15:03:41.001Z,23.40
2023-04-15T15:06:09.583Z,23.30
2023-04-15T15:08:38.018Z,23.20
2023-04-15T15:11:06.467Z,23.00
2023-04-15T15:13:34.790Z,22.90
2023-04-15T15:16:03.955Z,22.90
2023-04-15T15:18:32.525Z,22.80
2023-04-15T15:21:02.496Z,22.70
2023-04-15T15:23:31.114Z,22.60
2023-04-15T15:26:00.164Z,22.50
2023-04-15T15:28:28.616Z,22.40
2023-04-15T15:30:56.976Z,22.30
2023-04-15T15:33:25.332Z,22.20
2023-04-15T15:35:53.681Z,22.10
2023-04-15T15:38:23.969Z,22.00
2023-04-15T15:40:52.339Z,22.00
2023-04-15T15:43:20.726Z,21.90
2023-04-15T15:45:51.794Z,21.90
2023-04-15T15:48:20.573Z,21.80
2023-04-15T15:50:48.930Z,21.70
2023-04-15T15:53:20.846Z,21.70
2023-04-15T15:55:52.619Z,21.60
2023-04-15T15:58:22.232Z,21.60
2023-04-15T16:00:50.668Z,21.50
2023-04-15T16:03:19.405Z,21.50
2023-04-15T16:05:48.123Z,21.40
2023-04-15T16:08:16.781Z,21.40
2023-04-15T16:10:45.819Z,21.40
2023-04-15T16:13:15.597Z,21.30
2023-04-15T16:15:44.078Z,21.30
2023-04-15T16:18:12.348Z,21.30
2023-04-15T16:20:40.765Z,21.20
2023-04-15T16:23:13.301Z,21.20
2023-04-15T16:25:43.761Z,21.10
2023-04-15T16:28:24.976Z,21.10
2023-04-15T16:30:55.484Z,21.00
2023-04-15T16:33:23.883Z,21.00
2023-04-15T16:35:52.703Z,21.00
2023-04-15T16:38:21.160Z,20.90
2023-04-15T16:40:49.718Z,20.90
2023-04-15T16:43:18.073Z,20.80
2023-04-15T16:45:51.032Z,20.80
2023-04-15T16:48:21.738Z,20.80
2023-04-15T16:50:50.136Z,20.70
2023-04-15T16:53:18.547Z,20.70
2023-04-15T16:55:46.798Z,20.60
2023-04-15T16:58:15.534Z,20.60
2023-04-15T17:00:43.922Z,20.60
2023-04-15T17:03:12.439Z,20.50
2023-04-15T17:05:42.403Z,20.60
2023-04-15T17:08:11.216Z,20.50
2023-04-15T17:10:40.041Z,20.50
2023-04-15T17:13:10.275Z,20.50
2023-04-15T17:15:39.455Z,20.40
2023-04-15T17:18:09.341Z,20.40
2023-04-15T17:20:38.405Z,20.30
2023-04-15T17:23:09.458Z,20.30
2023-04-15T17:25:37.887Z,20.20
2023-04-15T17:28:06.677Z,20.20
2023-04-15T17:30:35.075Z,20.10
2023-04-15T17:33:03.428Z,20.10
2023-04-15T17:35:51.744Z,20.00
2023-04-15T17:38:21.478Z,20.00
2023-04-15T17:40:49.734Z,19.90
2023-04-15T17:43:18.471Z,19.90
2023-04-15T17:45:47.821Z,19.80
2023-04-15T17:48:16.293Z,19.80
2023-04-15T17:50:44.672Z,19.70
2023-04-15T17:53:12.928Z,19.70
2023-04-15T17:55:42.720Z,19.70
2023-04-15T17:58:11.095Z,19.60
2023-04-15T18:00:39.382Z,19.60
2023-04-15T18:03:07.943Z,19.50
2023-04-15T18:05:36.344Z,19.50
2023-04-15T18:08:06.118Z,19.50
2023-04-15T18:10:36.088Z,19.40
2023-04-15T18:13:06.430Z,19.40
2023-04-15T18:15:36.434Z,19.30
2023-04-15T18:18:05.685Z,19.30
2023-04-15T18:20:35.083Z,19.30
2023-04-15T18:23:03.498Z,19.20
2023-04-15T18:25:34.208Z,19.10
2023-04-15T18:28:02.490Z,19.10
2023-04-15T18:30:32.329Z,19.00
2023-04-15T18:33:00.890Z,19.00
2023-04-15T18:35:30.037Z,18.90
2023-04-15T18:37:58.935Z,18.90
2023-04-15T18:40:27.507Z,18.90
2023-04-15T18:42:56.804Z,18.80
2023-04-15T18:45:25.381Z,18.80
2023-04-15T18:47:55.401Z,18.80
2023-04-15T18:50:23.711Z,18.70
2023-04-15T18:52:52.243Z,18.60
2023-04-15T18:55:21.429Z,18.60
2023-04-15T18:57:49.782Z,18.60
2023-04-15T19:00:18.434Z,18.60
2023-04-15T19:02:46.859Z,18.50
2023-04-15T19:05:16.874Z,18.50
2023-04-15T19:07:45.840Z,18.40
2023-04-15T19:10:14.344Z,18.40
2023-04-15T19:12:42.714Z,18.40
2023-04-15T19:15:11.707Z,18.30
2023-04-15T19:17:40.051Z,18.30
2023-04-15T19:20:09.257Z,18.30
2023-04-15T19:22:39.306Z,18.10
2023-04-15T19:25:08.640Z,18.10
2023-04-15T19:27:38.354Z,18.20
2023-04-15T19:30:09.089Z,18.20
2023-04-15T19:32:38.051Z,18.20
2023-04-15T19:35:10.031Z,18.10
2023-04-15T19:37:42.181Z,18.20
2023-04-15T19:40:12.799Z,18.20
2023-04-15T19:42:41.560Z,18.20
2023-04-15T19:45:10.614Z,18.20
2023-04-15T19:47:38.934Z,18.20
2023-04-15T19:50:11.383Z,18.20
2023-04-15T19:52:41.510Z,18.10
2023-04-15T19:55:10.237Z,18.10
2023-04-15T19:57:38.508Z,18.10
2023-04-15T20:00:09.392Z,18.10
2023-04-15T20:02:37.974Z,18.10
2023-04-15T20:05:09.880Z,18.10
2023-04-15T20:07:39.773Z,18.10
2023-04-15T20:10:13.092Z,18.10
2023-04-15T20:12:51.040Z,18.10
2023-04-15T20:15:23.873Z,18.00
2023-04-15T20:17:53.579Z,18.10
2023-04-15T20:20:25.913Z,18.00
2023-04-15T20:22:55.529Z,18.00
2023-04-15T20:25:26.653Z,17.90
2023-04-15T20:27:55.352Z,17.90
2023-04-15T20:30:23.629Z,17.90
2023-04-15T20:32:53.276Z,17.90
2023-04-15T20:35:22.132Z,17.90
2023-04-15T20:37:50.699Z,17.90
2023-04-15T20:40:19.401Z,17.80
2023-04-15T20:42:49.072Z,17.80
2023-04-15T20:45:17.946Z,17.70
2023-04-15T20:47:46.323Z,17.70
2023-04-15T20:50:15.179Z,17.70
2023-04-15T20:52:43.772Z,17.70
2023-04-15T20:55:12.305Z,17.70
2023-04-15T20:57:40.609Z,17.60
2023-04-15T21:00:11.462Z,17.60
2023-04-15T21:02:41.028Z,17.60
2023-04-15T21:05:13.224Z,17.60
2023-04-15T21:07:42.634Z,17.50
2023-04-15T21:10:12.182Z,17.50
2023-04-15T21:12:41.501Z,17.50
2023-04-15T21:15:12.751Z,17.50
2023-04-15T21:17:41.766Z,17.50
2023-04-15T21:20:11.167Z,17.50
2023-04-15T21:22:39.407Z,17.40
2023-04-15T21:25:08.438Z,17.40
2023-04-15T21:27:37.034Z,17.40
2023-04-15T21:30:06.675Z,17.40
2023-04-15T21:32:36.450Z,17.30
2023-04-15T21:35:05.338Z,17.30
2023-04-15T21:37:33.589Z,17.40
2023-04-15T21:40:01.937Z,17.40
2023-04-15T21:42:32.185Z,17.40
2023-04-15T21:45:01.053Z,17.30
2023-04-15T21:47:29.346Z,17.40
2023-04-15T21:49:59.204Z,17.30
2023-04-15T21:52:27.474Z,17.30
2023-04-15T21:54:55.758Z,17.30
2023-04-15T21:57:24.161Z,17.30
2023-04-15T21:59:52.468Z,17.30
2023-04-15T22:02:21.126Z,17.30
2023-04-15T22:04:49.504Z,17.30
2023-04-15T22:07:19.251Z,17.30
2023-04-15T22:09:47.583Z,17.30
2023-04-15T22:12:15.888Z,17.30
2023-04-15T22:14:44.207Z,17.30
2023-04-15T22:17:12.472Z,17.30
2023-04-15T22:19:41.910Z,17.30
2023-04-15T22:22:10.208Z,17.30
2023-04-15T22:24:41.077Z,17.30
2023-04-15T22:27:09.617Z,17.30
2023-04-15T22:29:37.978Z,17.30
2023-04-15T22:32:06.934Z,17.30
2023-04-15T22:34:36.190Z,17.20
2023-04-15T22:37:04.631Z,17.30
2023-04-15T22:39:33.271Z,17.30
2023-04-15T22:42:03.513Z,17.30
2023-04-15T22:44:31.785Z,17.30
2023-04-15T22:47:00.074Z,17.20
2023-04-15T22:49:28.393Z,17.20
2023-04-15T22:51:56.816Z,17.20
2023-04-15T22:54:25.702Z,17.20
2023-04-15T22:56:53.910Z,17.20
2023-04-15T22:59:23.569Z,17.20
2023-04-15T23:01:51.984Z,17.20
2023-04-15T23:04:24.986Z,17.20
2023-04-15T23:06:56.809Z,17.10
2023-04-15T23:09:25.181Z,17.20
2023-04-15T23:11:53.395Z,17.20
2023-04-15T23:14:23.031Z,17.20
2023-04-15T23:16:51.329Z,17.10
2023-04-15T23:19:19.629Z,17.10
2023-04-15T23:21:47.915Z,17.10
2023-04-15T23:24:16.242Z,17.10
2023-04-15T23:26:44.664Z,17.10
2023-04-15T23:29:12.953Z,17.10
2023-04-15T23:31:42.662Z,17.10
2023-04-15T23:34:11.015Z,17.10
2023-04-15T23:36:39.556Z,17.00
2023-04-15T23:39:07.953Z,17.10
2023-04-15T23:41:36.608Z,17.00
2023-04-15T23:44:04.944Z,17.00
2023-04-15T23:46:33.320Z,17.00
2023-04-15T23:49:03.067Z,17.00
2023-04-15T23:51:31.336Z,17.00
2023-04-15T23:53:59.647Z,17.00
2023-04-15T23:56:27.975Z,17.00
2023-04-15T23:58:56.239Z,17.00
